createdAt,value
2023-08-30T00:01:42.247Z,100376.97
2023-08-30T00:04:09.412Z,100375.25
2023-08-30T00:06:36.492Z,100380.47
2023-08-30T00:09:03.747Z,100378.88
2023-08-30T00:11:31.480Z,100382.44
2023-08-30T00:14:09.080Z,100372.38
2023-08-30T00:16:37.519Z,100376.72
2023-08-30T00:19:05.146Z,100378.34
2023-08-30T00:21:32.388Z,100376.47
2023-08-30T00:23:59.506Z,100369.41
2023-08-30T00:26:26.602Z,100374.50
2023-08-30T00:28:55.377Z,100377.84
2023-08-30T00:31:23.261Z,100381.22
2023-08-30T00:33:50.640Z,100376.91
2023-08-30T00:36:19.491Z,100377.13
2023-08-30T00:38:47.461Z,100382.44
2023-08-30T00:41:14.578Z,100377.34
2023-08-30T00:43:43.032Z,100373.38
2023-08-30T00:46:13.063Z,100393.13
2023-08-30T00:48:40.564Z,100380.94
2023-08-30T00:51:10.359Z,100382.56
2023-08-30T00:53:37.523Z,100381.59
2023-08-30T00:56:04.685Z,100385.16
2023-08-30T00:58:32.120Z,100374.00
2023-08-30T01:01:00.855Z,100374.19
2023-08-30T01:03:27.996Z,100380.13
2023-08-30T01:05:56.300Z,100374.84
2023-08-30T01:08:23.442Z,100375.63
2023-08-30T01:11:21.735Z,100366.91
2023-08-30T01:13:57.273Z,100365.09
2023-08-30T01:16:26.052Z,100365.16
2023-08-30T01:18:57.710Z,100354.97
2023-08-30T01:21:31.263Z,100354.22
2023-08-30T01:24:03.543Z,100355.97
2023-08-30T01:26:52.044Z,100353.31
2023-08-30T01:29:22.159Z,100354.88
2023-08-30T01:31:50.151Z,100354.72
2023-08-30T01:34:18.083Z,100338.31
2023-08-30T01:36:45.615Z,100351.91
2023-08-30T01:39:15.435Z,100344.09
2023-08-30T01:41:42.927Z,100341.50
2023-08-30T01:44:11.630Z,100332.88
2023-08-30T01:46:40.185Z,100338.09
2023-08-30T01:49:08.673Z,100342.44
2023-08-30T01:51:38.120Z,100330.34
2023-08-30T01:54:05.668Z,100324.25
2023-08-30T01:56:34.788Z,100329.31
2023-08-30T01:59:02.005Z,100334.50
2023-08-30T02:01:29.240Z,100329.22
2023-08-30T02:03:56.264Z,100333.47
2023-08-30T02:07:03.238Z,100331.06
2023-08-30T02:09:43.876Z,100332.81
2023-08-30T02:12:16.436Z,100327.69
2023-08-30T02:14:48.421Z,100331.25
2023-08-30T02:17:16.446Z,100326.09
2023-08-30T02:19:47.257Z,100325.19
2023-08-30T02:22:19.248Z,100333.06
2023-08-30T02:24:46.307Z,100333.06
2023-08-30T02:27:13.373Z,100338.25
2023-08-30T02:29:41.392Z,100338.28
2023-08-30T02:32:08.592Z,100340.00
2023-08-30T02:34:36.997Z,100342.59
2023-08-30T02:37:04.149Z,100343.50
2023-08-30T02:39:31.281Z,100352.94
2023-08-30T02:41:58.392Z,100353.78
2023-08-30T02:44:25.463Z,100358.97
2023-08-30T02:46:52.488Z,100368.50
2023-08-30T02:49:19.495Z,100365.03
2023-08-30T02:51:46.556Z,100361.59
2023-08-30T02:54:14.593Z,100357.44
2023-08-30T02:56:44.462Z,100367.94
2023-08-30T02:59:12.768Z,100369.81
2023-08-30T03:01:40.215Z,100361.34
2023-08-30T03:04:09.101Z,100363.22
2023-08-30T03:06:36.817Z,100358.84
2023-08-30T03:09:04.332Z,100362.31
2023-08-30T03:11:34.789Z,100370.03
2023-08-30T03:14:02.694Z,100364.91
2023-08-30T03:16:30.333Z,100364.00
2023-08-30T03:18:59.354Z,100359.63
2023-08-30T03:21:26.612Z,100357.94
2023-08-30T03:23:53.734Z,100359.63
2023-08-30T03:26:24.077Z,100353.56
2023-08-30T03:28:51.201Z,100363.13
2023-08-30T03:31:20.765Z,100358.00
2023-08-30T03:33:51.103Z,100355.41
2023-08-30T03:36:19.664Z,100358.88
2023-08-30T03:38:47.072Z,100355.44
2023-08-30T03:41:14.757Z,100355.38
2023-08-30T03:43:44.153Z,100356.34
2023-08-30T03:46:13.263Z,100365.78
2023-08-30T03:48:40.899Z,100364.97
2023-08-30T03:51:08.122Z,100368.38
2023-08-30T03:53:35.360Z,100363.16
2023-08-30T03:56:02.694Z,100359.66
2023-08-30T03:58:29.929Z,100367.44
2023-08-30T04:00:58.328Z,100362.25
2023-08-30T04:03:25.958Z,100363.13
2023-08-30T04:05:58.178Z,100362.25
2023-08-30T04:08:25.714Z,100364.03
2023-08-30T04:10:54.776Z,100357.94
2023-08-30T04:13:22.166Z,100364.78
2023-08-30T04:15:49.316Z,100363.88
2023-08-30T04:18:16.658Z,100371.59
2023-08-30T04:20:48.722Z,100369.00
2023-08-30T04:23:16.013Z,100372.47
2023-08-30T04:25:46.078Z,100368.19
2023-08-30T04:28:13.443Z,100369.22
2023-08-30T04:30:40.845Z,100367.69
2023-08-30T04:33:09.329Z,100369.41
2023-08-30T04:35:36.616Z,100367.78
2023-08-30T04:38:04.486Z,100369.59
2023-08-30T04:40:33.295Z,100371.34
2023-08-30T04:43:01.377Z,100369.69
2023-08-30T04:45:29.399Z,100378.34
2023-08-30T04:47:57.094Z,100373.13
2023-08-30T04:50:25.362Z,100389.50
2023-08-30T04:52:52.814Z,100385.31
2023-08-30T04:55:19.916Z,100395.84
2023-08-30T04:57:48.719Z,100389.94
2023-08-30T05:00:18.667Z,100391.66
2023-08-30T05:02:47.728Z,100403.63
2023-08-30T05:05:15.903Z,100411.34
2023-08-30T05:07:43.557Z,100414.00
2023-08-30T05:10:10.920Z,100412.31
2023-08-30T05:12:38.580Z,100407.13
2023-08-30T05:15:06.841Z,100417.44
2023-08-30T05:17:34.405Z,100425.97
2023-08-30T05:20:04.167Z,100420.84
2023-08-30T05:22:32.180Z,100428.59
2023-08-30T05:24:59.492Z,100420.84
2023-08-30T05:27:26.694Z,100428.59
2023-08-30T05:29:54.652Z,100436.34
2023-08-30T05:32:22.009Z,100428.56
2023-08-30T05:35:07.901Z,100426.81
2023-08-30T05:37:53.775Z,100429.50
2023-08-30T05:40:43.699Z,100428.72
2023-08-30T05:43:10.947Z,100431.25
2023-08-30T05:45:38.394Z,100444.97
2023-08-30T05:48:06.689Z,100445.84
2023-08-30T05:50:34.036Z,100449.25
2023-08-30T05:53:01.146Z,100444.00
2023-08-30T05:55:28.225Z,100450.00
2023-08-30T05:57:55.400Z,100452.53
2023-08-30T06:00:23.409Z,100454.28
2023-08-30T06:02:52.529Z,100456.81
2023-08-30T06:05:19.683Z,100459.41
2023-08-30T06:07:46.852Z,100464.44
2023-08-30T06:10:14.198Z,100455.75
2023-08-30T06:12:41.230Z,100466.91
2023-08-30T06:15:08.818Z,100454.81
2023-08-30T06:17:36.124Z,100457.38
2023-08-30T06:20:04.178Z,100458.22
2023-08-30T06:22:31.874Z,100452.94
2023-08-30T06:24:58.871Z,100459.81
2023-08-30T06:27:26.026Z,100464.97
2023-08-30T06:29:53.228Z,100465.72
2023-08-30T06:32:20.302Z,100472.44
2023-08-30T06:34:47.472Z,100474.03
2023-08-30T06:37:14.449Z,100480.00
2023-08-30T06:39:41.601Z,100478.94
2023-08-30T06:42:08.989Z,100478.81
2023-08-30T06:44:36.341Z,100483.94
2023-08-30T06:47:03.790Z,100482.13
2023-08-30T06:49:33.048Z,100482.84
2023-08-30T06:52:02.926Z,100480.19
2023-08-30T06:54:31.507Z,100482.72
2023-08-30T06:57:00.421Z,100473.22
2023-08-30T06:59:28.557Z,100474.09
2023-08-30T07:01:56.042Z,100475.84
2023-08-30T07:04:23.324Z,100475.75
2023-08-30T07:06:50.623Z,100472.19
2023-08-30T07:09:18.013Z,100460.81
2023-08-30T07:11:46.148Z,100472.84
2023-08-30T07:14:15.120Z,100471.84
2023-08-30T07:16:42.705Z,100466.50
2023-08-30T07:19:11.073Z,100468.97
2023-08-30T07:21:39.893Z,100466.22
2023-08-30T07:24:08.485Z,100470.34
2023-08-30T07:26:37.048Z,100464.81
2023-08-30T07:29:07.699Z,100472.41
2023-08-30T07:31:34.871Z,100467.22
2023-08-30T07:34:02.222Z,100473.19
2023-08-30T07:36:44.829Z,100473.09
2023-08-30T07:39:14.598Z,100477.41
2023-08-30T07:41:41.812Z,100476.53
2023-08-30T07:44:08.851Z,100495.44
2023-08-30T07:46:35.929Z,100485.06
2023-08-30T07:49:03.880Z,100487.66
2023-08-30T07:51:31.177Z,100488.47
2023-08-30T07:53:58.327Z,100490.25
2023-08-30T07:56:28.263Z,100491.78
2023-08-30T07:58:55.588Z,100496.97
2023-08-30T08:01:22.850Z,100502.25
2023-08-30T08:04:04.220Z,100506.53
2023-08-30T08:06:34.959Z,100504.63
2023-08-30T08:09:02.956Z,100508.00
2023-08-30T08:11:30.513Z,100512.28
2023-08-30T08:13:57.865Z,100517.41
2023-08-30T08:16:25.124Z,100532.09
2023-08-30T08:18:53.273Z,100528.72
2023-08-30T08:21:20.423Z,100529.66
2023-08-30T08:23:50.859Z,100533.09
2023-08-30T08:26:18.373Z,100535.78
2023-08-30T08:28:45.644Z,100542.72
2023-08-30T08:31:12.933Z,100546.13
2023-08-30T08:33:40.033Z,100543.44
2023-08-30T08:36:07.128Z,100546.94
2023-08-30T08:38:35.240Z,100552.09
2023-08-30T08:41:05.865Z,100547.72
2023-08-30T08:43:33.867Z,100558.06
2023-08-30T08:46:01.943Z,100556.31
2023-08-30T08:48:32.595Z,100559.66
2023-08-30T08:51:01.473Z,100570.06
2023-08-30T08:53:28.988Z,100570.00
2023-08-30T08:55:59.409Z,100576.06
2023-08-30T08:58:27.291Z,100583.66
2023-08-30T09:00:55.440Z,100581.91
2023-08-30T09:03:23.447Z,100588.72
2023-08-30T09:05:52.268Z,100587.88
2023-08-30T09:08:19.409Z,100590.41
2023-08-30T09:10:48.589Z,100588.56
2023-08-30T09:13:15.851Z,100591.09
2023-08-30T09:15:43.029Z,100599.72
2023-08-30T09:18:18.115Z,100600.56
2023-08-30T09:20:46.112Z,100606.72
2023-08-30T09:23:23.138Z,100603.16
2023-08-30T09:25:58.253Z,100603.03
2023-08-30T09:28:25.515Z,100604.75
2023-08-30T09:30:53.930Z,100599.47
2023-08-30T09:33:30.532Z,100606.22
2023-08-30T09:35:57.728Z,100619.13
2023-08-30T09:38:25.032Z,100617.31
2023-08-30T09:40:53.137Z,100615.28
2023-08-30T09:43:23.176Z,100608.25
2023-08-30T09:45:51.848Z,100623.81
2023-08-30T09:48:23.403Z,100615.97
2023-08-30T09:50:55.393Z,100621.78
2023-08-30T09:53:27.645Z,100621.72
2023-08-30T09:55:55.385Z,100626.88
2023-08-30T09:58:22.856Z,100626.94
2023-08-30T10:00:50.191Z,100629.47
2023-08-30T10:03:30.684Z,100629.38
2023-08-30T10:06:00.317Z,100636.09
2023-08-30T10:08:32.171Z,100631.53
2023-08-30T10:11:00.122Z,100631.25
2023-08-30T10:13:28.171Z,100624.22
2023-08-30T10:16:04.836Z,100623.16
2023-08-30T10:18:36.021Z,100617.88
2023-08-30T10:21:08.140Z,100611.91
2023-08-30T10:23:37.834Z,100608.25
2023-08-30T10:26:07.671Z,100606.22
2023-08-30T10:28:36.172Z,100608.53
2023-08-30T10:31:04.458Z,100609.97
2023-08-30T10:33:31.884Z,100610.53
2023-08-30T10:36:08.456Z,100610.41
2023-08-30T10:38:39.433Z,100612.72
2023-08-30T10:41:10.635Z,100610.84
2023-08-30T10:43:38.994Z,100614.41
2023-08-30T10:46:08.288Z,100597.06
2023-08-30T10:48:39.760Z,100604.78
2023-08-30T10:51:45.946Z,100603.34
2023-08-30T10:54:15.072Z,100607.34
2023-08-30T10:57:02.684Z,100600.44
2023-08-30T10:59:30.806Z,100610.91
2023-08-30T11:02:02.735Z,100605.44
2023-08-30T11:04:29.756Z,100607.44
2023-08-30T11:06:57.868Z,100594.47
2023-08-30T11:09:25.837Z,100599.41
2023-08-30T11:11:53.062Z,100599.16
2023-08-30T11:14:20.303Z,100599.78
2023-08-30T11:16:48.038Z,100605.78
2023-08-30T11:19:15.331Z,100602.88
2023-08-30T11:21:46.126Z,100599.53
2023-08-30T11:24:13.715Z,100612.56
2023-08-30T11:26:41.089Z,100602.38
2023-08-30T11:29:09.201Z,100597.41
2023-08-30T11:31:37.496Z,100594.78
2023-08-30T11:34:07.045Z,100590.38
2023-08-30T11:36:37.510Z,100593.19
2023-08-30T11:39:05.073Z,100586.50
2023-08-30T11:41:33.222Z,100592.00
2023-08-30T11:44:00.850Z,100592.13
2023-08-30T11:46:28.087Z,100600.66
2023-08-30T11:48:56.143Z,100585.88
2023-08-30T11:51:23.719Z,100594.88
2023-08-30T11:53:51.427Z,100594.28
2023-08-30T11:56:20.456Z,100597.88
2023-08-30T11:58:48.190Z,100603.22
2023-08-30T12:01:15.806Z,100605.41
2023-08-30T12:03:43.299Z,100597.50
2023-08-30T12:06:13.108Z,100612.59
2023-08-30T12:08:40.800Z,100613.72
2023-08-30T12:11:22.089Z,100612.47
2023-08-30T12:13:49.622Z,100616.00
2023-08-30T12:16:18.793Z,100618.91
2023-08-30T12:18:46.340Z,100621.94
2023-08-30T12:21:15.773Z,100624.03
2023-08-30T12:23:43.354Z,100625.81
2023-08-30T12:26:12.065Z,100629.53
2023-08-30T12:28:45.912Z,100627.00
2023-08-30T12:31:13.487Z,100628.13
2023-08-30T12:33:42.316Z,100609.94
2023-08-30T12:36:09.726Z,100616.75
2023-08-30T12:38:37.065Z,100612.47
2023-08-30T12:41:04.406Z,100619.50
2023-08-30T12:43:34.482Z,100614.31
2023-08-30T12:46:02.200Z,100617.81
2023-08-30T12:48:29.510Z,100620.00
2023-08-30T12:50:57.411Z,100627.88
2023-08-30T12:53:24.658Z,100629.06
2023-08-30T12:55:52.678Z,100630.09
2023-08-30T12:58:20.261Z,100626.78
2023-08-30T13:00:47.686Z,100629.50
2023-08-30T13:03:15.618Z,100629.44
2023-08-30T13:05:43.190Z,100626.13
2023-08-30T13:08:10.358Z,100634.66
2023-08-30T13:10:37.542Z,100627.28
2023-08-30T13:13:05.121Z,100633.97
2023-08-30T13:15:32.624Z,100644.00
2023-08-30T13:17:59.658Z,100641.88
2023-08-30T13:20:27.274Z,100646.72
2023-08-30T13:22:54.547Z,100644.16
2023-08-30T13:25:21.740Z,100640.03
2023-08-30T13:27:48.936Z,100644.53
2023-08-30T13:30:17.434Z,100640.28
2023-08-30T13:32:44.833Z,100645.84
2023-08-30T13:35:12.560Z,100646.91
2023-08-30T13:37:39.679Z,100657.03
2023-08-30T13:40:07.342Z,100672.69
2023-08-30T13:45:04.536Z,100684.50
2023-08-30T13:47:32.232Z,100676.75
2023-08-30T13:50:01.614Z,100677.09
2023-08-30T13:52:31.673Z,100661.06
2023-08-30T13:54:59.865Z,100674.91
2023-08-30T13:57:27.011Z,100687.03
2023-08-30T13:59:54.171Z,100693.84
2023-08-30T14:02:21.610Z,100700.66
2023-08-30T14:04:50.552Z,100703.28
2023-08-30T14:07:18.138Z,100700.53
2023-08-30T14:09:45.820Z,100712.38
2023-08-30T14:12:12.931Z,100711.41
2023-08-30T14:14:40.310Z,100702.03
2023-08-30T14:17:07.741Z,100690.06
2023-08-30T14:19:36.509Z,100688.19
2023-08-30T14:22:05.148Z,100677.63
2023-08-30T14:24:38.293Z,100666.22
2023-08-30T14:27:09.970Z,100668.66
2023-08-30T14:29:37.016Z,100687.53
2023-08-30T14:32:04.568Z,100696.91
2023-08-30T14:34:31.880Z,100704.75
2023-08-30T14:36:59.047Z,100715.13
2023-08-30T14:39:26.260Z,100715.03
2023-08-30T14:41:53.327Z,100710.59
2023-08-30T14:44:21.323Z,100718.59
2023-08-30T14:46:48.528Z,100723.28
2023-08-30T14:49:15.661Z,100729.63
2023-08-30T14:51:42.788Z,100736.78
2023-08-30T14:54:09.980Z,100728.22
2023-08-30T14:56:37.263Z,100733.28
2023-08-30T14:59:04.243Z,100727.91
2023-08-30T15:01:32.049Z,100731.16
2023-08-30T15:03:59.294Z,100725.84
2023-08-30T15:06:26.941Z,100732.63
2023-08-30T15:08:53.983Z,100739.38
2023-08-30T15:11:21.162Z,100738.38
2023-08-30T15:13:48.329Z,100733.97
2023-08-30T15:16:15.486Z,100739.91
2023-08-30T15:18:42.748Z,100730.41
2023-08-30T15:21:09.954Z,100726.06
2023-08-30T15:23:38.786Z,100732.97
2023-08-30T15:26:06.923Z,100728.63
2023-08-30T15:28:34.741Z,100738.00
2023-08-30T15:31:02.126Z,100741.44
2023-08-30T15:33:29.381Z,100729.41
2023-08-30T15:36:01.925Z,100733.66
2023-08-30T15:38:31.432Z,100728.50
2023-08-30T15:40:58.576Z,100734.59
2023-08-30T15:43:26.303Z,100731.31
2023-08-30T15:45:53.519Z,100731.38
2023-08-30T15:48:20.673Z,100737.47
2023-08-30T15:50:47.894Z,100731.44
2023-08-30T15:53:14.974Z,100734.06
2023-08-30T15:55:42.400Z,100728.88
2023-08-30T15:58:09.684Z,100741.75
2023-08-30T16:00:41.874Z,100737.41
2023-08-30T16:03:12.181Z,100738.25
2023-08-30T16:05:39.467Z,100736.53
2023-08-30T16:08:06.747Z,100738.31
2023-08-30T16:10:34.357Z,100743.41
2023-08-30T16:13:01.756Z,100741.66
2023-08-30T16:15:29.080Z,100752.91
2023-08-30T16:17:57.473Z,100749.34
2023-08-30T16:20:25.359Z,100751.88
2023-08-30T16:22:53.746Z,100755.41
2023-08-30T16:25:20.967Z,100749.44
2023-08-30T16:27:48.402Z,100755.56
2023-08-30T16:30:16.826Z,100754.69
2023-08-30T16:32:44.187Z,100755.53
2023-08-30T16:35:12.854Z,100757.19
2023-08-30T16:37:40.032Z,100757.19
2023-08-30T16:40:08.048Z,100764.19
2023-08-30T16:42:35.407Z,100762.50
2023-08-30T16:45:02.926Z,100772.03
2023-08-30T16:47:35.569Z,100770.34
2023-08-30T16:50:08.266Z,100772.94
2023-08-30T16:52:37.081Z,100776.44
2023-08-30T16:55:05.105Z,100776.53
2023-08-30T16:57:32.224Z,100768.72
2023-08-30T16:59:59.887Z,100770.44
2023-08-30T17:02:27.474Z,100768.75
2023-08-30T23:20:25.979Z,101054.03
2023-08-30T23:22:53.501Z,101057.47
2023-08-30T23:25:20.779Z,101058.38
2023-08-30T23:27:48.027Z,101056.59
2023-08-30T23:30:15.354Z,101051.44
2023-08-30T23:32:42.430Z,101056.56
2023-08-30T23:35:09.917Z,101059.16
2023-08-30T23:37:36.946Z,101067.78
2023-08-30T23:40:10.719Z,101069.53
2023-08-30T23:42:38.696Z,101072.97
2023-08-30T23:45:06.929Z,101069.56
2023-08-30T23:47:34.160Z,101064.38
2023-08-30T23:50:01.352Z,101061.78
2023-08-30T23:52:29.346Z,101060.94
2023-08-30T23:54:57.195Z,101060.09
2023-08-30T23:57:24.675Z,101073.03
2023-08-30T23:59:51.741Z,101065.28
